createdAt,value
2022-08-31T00:09:33.164Z,61.15
2022-08-31T00:19:36.250Z,62.48
2022-08-31T00:29:39.215Z,63.27
2022-08-31T00:39:42.193Z,64.05
2022-08-31T00:49:51.425Z,63.77
2022-08-31T00:59:54.502Z,64.45
2022-08-31T01:09:58.967Z,64.35
2022-08-31T01:20:19.479Z,64.77
2022-08-31T01:30:25.979Z,65.04
2022-08-31T01:40:44.482Z,65.31
2022-08-31T01:50:48.409Z,65.59
2022-08-31T02:00:52.380Z,66.13
2022-08-31T02:10:56.287Z,66.45
2022-08-31T02:20:59.375Z,66.66
2022-08-31T02:31:04.090Z,66.80
2022-08-31T02:41:09.167Z,67.37
2022-08-31T02:51:14.287Z,68.03
2022-08-31T03:01:17.357Z,68.48
2022-08-31T03:11:20.642Z,69.04
2022-08-31T03:21:23.694Z,70.03
2022-08-31T03:31:27.475Z,70.40
2022-08-31T03:41:31.030Z,70.86
2022-08-31T03:51:34.090Z,71.22
2022-08-31T04:01:37.715Z,70.96
2022-08-31T04:12:03.532Z,70.34
2022-08-31T04:22:10.081Z,70.64
2022-08-31T04:32:14.590Z,71.16
2022-08-31T04:42:37.070Z,70.79
2022-08-31T04:52:42.304Z,70.61
2022-08-31T05:02:51.339Z,69.42
2022-08-31T05:12:56.024Z,68.45
2022-08-31T05:22:59.066Z,67.52
2022-08-31T05:33:02.124Z,65.24
2022-08-31T05:43:05.483Z,63.77
2022-08-31T05:53:09.436Z,61.62
2022-08-31T06:03:12.505Z,61.57
2022-08-31T06:13:17.408Z,61.28
2022-08-31T06:23:20.624Z,60.37
2022-08-31T06:33:24.750Z,58.87
2022-08-31T06:43:32.836Z,55.95
2022-08-31T06:53:37.407Z,58.79
2022-08-31T07:03:44.133Z,59.09
2022-08-31T07:13:48.431Z,57.91
2022-08-31T07:23:53.076Z,54.33
2022-08-31T07:33:57.354Z,50.79
2022-08-31T07:44:01.992Z,49.23
2022-08-31T07:54:06.981Z,47.66
2022-08-31T08:04:15.627Z,47.55
2022-08-31T08:14:22.318Z,44.81
2022-08-31T08:24:34.611Z,45.23
2022-08-31T08:34:44.018Z,44.53
2022-08-31T08:44:47.558Z,40.23
2022-08-31T08:54:53.502Z,38.78
2022-08-31T09:05:09.155Z,37.84
2022-08-31T09:15:19.046Z,36.28
2022-08-31T09:25:33.335Z,35.41
2022-08-31T09:35:41.428Z,33.19
2022-08-31T09:45:56.917Z,32.37
2022-08-31T09:56:14.364Z,32.09
2022-08-31T10:06:46.513Z,31.00
2022-08-31T10:16:56.025Z,30.53
2022-08-31T10:27:35.430Z,30.68
2022-08-31T10:38:08.498Z,29.84
2022-08-31T10:48:13.193Z,29.84
2022-08-31T10:58:22.482Z,29.00
2022-08-31T11:08:54.167Z,29.43
2022-08-31T11:19:18.862Z,29.19
2022-08-31T11:29:44.011Z,28.94
2022-08-31T11:39:48.591Z,29.01
2022-08-31T11:49:56.781Z,28.55
2022-08-31T12:00:00.564Z,28.86
2022-08-31T12:10:03.762Z,29.81
2022-08-31T12:20:09.843Z,30.04
2022-08-31T12:30:19.212Z,29.34
2022-08-31T12:40:25.024Z,29.70
2022-08-31T12:51:00.080Z,30.96
2022-08-31T13:01:13.963Z,30.80
2022-08-31T13:11:34.903Z,30.19
2022-08-31T13:21:49.479Z,29.12
2022-08-31T13:31:52.754Z,30.33
2022-08-31T13:42:23.954Z,30.52
2022-08-31T13:52:31.580Z,31.31
2022-08-31T14:02:39.637Z,32.37
2022-08-31T14:13:02.764Z,33.50
2022-08-31T14:23:27.368Z,34.27
2022-08-31T14:33:32.086Z,35.24
2022-08-31T14:43:35.420Z,35.45
2022-08-31T14:53:38.439Z,36.74
2022-08-31T15:03:41.732Z,37.17
2022-08-31T15:13:45.138Z,37.08
2022-08-31T15:23:50.981Z,36.65
2022-08-31T15:34:00.477Z,37.18
2022-08-31T15:44:10.275Z,38.34
2022-08-31T15:54:22.236Z,39.80
2022-08-31T16:04:26.320Z,41.23
2022-08-31T16:14:33.495Z,41.72
2022-08-31T16:24:37.820Z,42.45
2022-08-31T16:34:42.750Z,42.44
2022-08-31T16:44:48.086Z,43.07
2022-08-31T16:54:51.717Z,44.17
2022-08-31T17:04:55.296Z,44.84
2022-08-31T17:14:58.514Z,44.63
2022-08-31T17:25:04.383Z,44.44
2022-08-31T17:35:09.070Z,44.58
2022-08-31T17:45:12.194Z,44.86
2022-08-31T17:55:15.377Z,44.98
2022-08-31T18:05:18.432Z,44.95
2022-08-31T18:15:21.523Z,44.79
2022-08-31T18:25:24.657Z,45.09
2022-08-31T18:35:31.419Z,45.64
2022-08-31T18:45:39.077Z,45.81
2022-08-31T18:55:44.306Z,46.33
2022-08-31T19:05:47.802Z,46.98
2022-08-31T19:15:51.277Z,47.55
2022-08-31T19:25:55.151Z,48.17
2022-08-31T19:35:59.846Z,49.02
2022-08-31T19:46:20.272Z,49.45
2022-08-31T19:56:29.923Z,49.92
2022-08-31T20:06:33.638Z,50.32
2022-08-31T20:16:41.827Z,50.18
2022-08-31T20:26:51.420Z,50.39
2022-08-31T20:37:00.878Z,50.33
2022-08-31T20:47:27.234Z,50.27
2022-08-31T20:57:33.162Z,50.71
2022-08-31T21:07:37.748Z,51.00
2022-08-31T21:17:40.828Z,50.92
2022-08-31T21:27:43.888Z,50.60
2022-08-31T21:37:46.896Z,50.35
2022-08-31T21:47:49.889Z,50.08
2022-08-31T21:57:52.833Z,49.44
2022-08-31T22:07:55.938Z,49.20
2022-08-31T22:18:25.869Z,48.81
2022-08-31T22:28:25.153Z,48.39
2022-08-31T22:38:28.770Z,47.84
2022-08-31T22:48:35.157Z,47.70
2022-08-31T22:58:38.452Z,47.71
2022-08-31T23:08:43.198Z,47.59
2022-08-31T23:18:48.757Z,47.45
2022-08-31T23:28:53.759Z,47.45
2022-08-31T23:38:59.397Z,47.26
2022-08-31T23:49:05.390Z,46.93
2022-08-31T23:59:12.896Z,47.15
